sensor_id;sensor_type;location;lat;lon;timestamp;P1;durP1;ratioP1;P2;durP2;ratioP2
66087;SDS011;52872;52.994;6.940;2023-03-24T00:01:18;6.35;;;3.30;;
66087;SDS011;52872;52.994;6.940;2023-03-24T00:03:45;6.80;;;3.47;;
66087;SDS011;52872;52.994;6.940;2023-03-24T00:06:14;5.35;;;3.10;;
66087;SDS011;52872;52.994;6.940;2023-03-24T00:08:41;8.00;;;3.60;;
66087;SDS011;52872;52.994;6.940;2023-03-24T00:11:10;4.00;;;3.05;;
66087;SDS011;52872;52.994;6.940;2023-03-24T00:13:37;6.70;;;3.90;;
66087;SDS011;52872;52.994;6.940;2023-03-24T00:18:35;6.28;;;3.58;;
66087;SDS011;52872;52.994;6.940;2023-03-24T00:21:03;9.45;;;4.10;;
66087;SDS011;52872;52.994;6.940;2023-03-24T00:23:31;5.40;;;3.65;;
66087;SDS011;52872;52.994;6.940;2023-03-24T00:28:34;10.50;;;4.22;;
66087;SDS011;52872;52.994;6.940;2023-03-24T00:31:03;7.90;;;4.18;;
66087;SDS011;52872;52.994;6.940;2023-03-24T00:33:31;7.75;;;3.70;;
66087;SDS011;52872;52.994;6.940;2023-03-24T00:36:04;7.63;;;3.45;;
66087;SDS011;52872;52.994;6.940;2023-03-24T00:38:33;7.40;;;3.67;;
66087;SDS011;52872;52.994;6.940;2023-03-24T00:41:01;7.63;;;3.40;;
66087;SDS011;52872;52.994;6.940;2023-03-24T00:43:28;7.05;;;3.80;;
66087;SDS011;52872;52.994;6.940;2023-03-24T00:45:59;7.18;;;3.58;;
66087;SDS011;52872;52.994;6.940;2023-03-24T00:48:27;6.63;;;3.83;;
66087;SDS011;52872;52.994;6.940;2023-03-24T00:50:55;7.30;;;4.03;;
66087;SDS011;52872;52.994;6.940;2023-03-24T00:53:22;7.25;;;3.58;;
66087;SDS011;52872;52.994;6.940;2023-03-24T00:55:55;6.30;;;3.78;;
66087;SDS011;52872;52.994;6.940;2023-03-24T00:58:24;10.07;;;3.80;;
66087;SDS011;52872;52.994;6.940;2023-03-24T01:00:52;5.70;;;3.53;;
66087;SDS011;52872;52.994;6.940;2023-03-24T01:03:22;6.10;;;3.40;;
66087;SDS011;52872;52.994;6.940;2023-03-24T01:05:59;6.80;;;4.03;;
66087;SDS011;52872;52.994;6.940;2023-03-24T01:08:29;6.70;;;4.20;;
66087;SDS011;52872;52.994;6.940;2023-03-24T01:10:57;9.13;;;3.95;;
66087;SDS011;52872;52.994;6.940;2023-03-24T01:13:27;6.43;;;3.40;;
66087;SDS011;52872;52.994;6.940;2023-03-24T01:15:55;6.90;;;3.97;;
66087;SDS011;52872;52.994;6.940;2023-03-24T01:18:22;8.73;;;3.85;;
66087;SDS011;52872;52.994;6.940;2023-03-24T01:20:50;6.70;;;3.80;;
66087;SDS011;52872;52.994;6.940;2023-03-24T01:23:20;5.88;;;3.17;;
66087;SDS011;52872;52.994;6.940;2023-03-24T01:25:49;7.28;;;3.75;;
66087;SDS011;52872;52.994;6.940;2023-03-24T01:28:17;5.35;;;3.95;;
66087;SDS011;52872;52.994;6.940;2023-03-24T01:30:51;6.00;;;3.70;;
66087;SDS011;52872;52.994;6.940;2023-03-24T01:33:19;4.78;;;3.30;;
66087;SDS011;52872;52.994;6.940;2023-03-24T01:35:46;5.63;;;3.40;;
66087;SDS011;52872;52.994;6.940;2023-03-24T01:38:14;3.80;;;3.50;;
66087;SDS011;52872;52.994;6.940;2023-03-24T01:40:42;6.05;;;3.67;;
66087;SDS011;52872;52.994;6.940;2023-03-24T01:43:45;4.80;;;3.15;;
66087;SDS011;52872;52.994;6.940;2023-03-24T01:48:48;6.50;;;3.60;;
66087;SDS011;52872;52.994;6.940;2023-03-24T01:54:31;6.57;;;3.92;;
66087;SDS011;52872;52.994;6.940;2023-03-24T01:57:06;5.97;;;3.63;;
66087;SDS011;52872;52.994;6.940;2023-03-24T01:59:45;5.82;;;3.72;;
66087;SDS011;52872;52.994;6.940;2023-03-24T02:02:39;5.63;;;3.47;;
66087;SDS011;52872;52.994;6.940;2023-03-24T02:05:10;6.20;;;3.53;;
66087;SDS011;52872;52.994;6.940;2023-03-24T02:07:48;5.20;;;3.45;;
66087;SDS011;52872;52.994;6.940;2023-03-24T02:10:18;4.95;;;3.38;;
66087;SDS011;52872;52.994;6.940;2023-03-24T02:12:47;6.22;;;4.00;;
66087;SDS011;52872;52.994;6.940;2023-03-24T02:15:16;6.50;;;3.60;;
66087;SDS011;52872;52.994;6.940;2023-03-24T02:31:33;6.00;;;4.20;;
66087;SDS011;52872;52.994;6.940;2023-03-24T02:42:37;4.68;;;3.72;;
66087;SDS011;52872;52.994;6.940;2023-03-24T02:50:45;4.72;;;3.80;;
66087;SDS011;52872;52.994;6.940;2023-03-24T02:53:19;6.05;;;4.38;;
66087;SDS011;52872;52.994;6.940;2023-03-24T02:59:04;5.90;;;3.88;;
66087;SDS011;52872;52.994;6.940;2023-03-24T03:04:40;4.20;;;3.67;;
66087;SDS011;52872;52.994;6.940;2023-03-24T03:07:11;5.35;;;3.90;;
66087;SDS011;52872;52.994;6.940;2023-03-24T03:09:55;5.43;;;3.60;;
66087;SDS011;52872;52.994;6.940;2023-03-24T03:12:25;6.20;;;3.57;;
66087;SDS011;52872;52.994;6.940;2023-03-24T03:14:58;4.63;;;3.45;;
66087;SDS011;52872;52.994;6.940;2023-03-24T03:17:45;7.28;;;4.70;;
66087;SDS011;52872;52.994;6.940;2023-03-24T03:20:21;5.50;;;3.95;;
66087;SDS011;52872;52.994;6.940;2023-03-24T03:22:55;5.95;;;4.07;;
66087;SDS011;52872;52.994;6.940;2023-03-24T03:25:27;5.25;;;4.03;;
66087;SDS011;52872;52.994;6.940;2023-03-24T03:28:01;4.45;;;4.10;;
66087;SDS011;52872;52.994;6.940;2023-03-24T03:30:31;5.50;;;3.95;;
66087;SDS011;52872;52.994;6.940;2023-03-24T03:33:04;4.37;;;3.80;;
66087;SDS011;52872;52.994;6.940;2023-03-24T03:35:37;3.85;;;3.45;;
66087;SDS011;52872;52.994;6.940;2023-03-24T03:38:16;5.63;;;4.80;;
66087;SDS011;52872;52.994;6.940;2023-03-24T03:40:50;6.15;;;4.05;;
66087;SDS011;52872;52.994;6.940;2023-03-24T03:43:30;4.15;;;3.85;;
66087;SDS011;52872;52.994;6.940;2023-03-24T03:45:59;4.00;;;3.40;;
66087;SDS011;52872;52.994;6.940;2023-03-24T03:48:33;5.07;;;3.78;;
66087;SDS011;52872;52.994;6.940;2023-03-24T03:51:01;3.55;;;2.97;;
66087;SDS011;52872;52.994;6.940;2023-03-24T03:56:09;5.00;;;4.60;;
66087;SDS011;52872;52.994;6.940;2023-03-24T03:58:45;5.85;;;3.83;;
66087;SDS011;52872;52.994;6.940;2023-03-24T04:01:15;4.72;;;4.13;;
66087;SDS011;52872;52.994;6.940;2023-03-24T04:07:36;4.10;;;3.78;;
66087;SDS011;52872;52.994;6.940;2023-03-24T04:25:17;3.45;;;2.08;;
66087;SDS011;52872;52.994;6.940;2023-03-24T04:30:40;3.03;;;2.00;;
66087;SDS011;52872;52.994;6.940;2023-03-24T04:35:56;3.92;;;1.77;;
66087;SDS011;52872;52.994;6.940;2023-03-24T04:38:52;5.22;;;2.05;;
66087;SDS011;52872;52.994;6.940;2023-03-24T04:41:33;4.40;;;2.00;;
66087;SDS011;52872;52.994;6.940;2023-03-24T04:44:10;2.70;;;1.90;;
66087;SDS011;52872;52.994;6.940;2023-03-24T04:46:51;3.30;;;1.55;;
66087;SDS011;52872;52.994;6.940;2023-03-24T04:49:22;4.78;;;1.80;;
66087;SDS011;52872;52.994;6.940;2023-03-24T04:51:52;4.38;;;1.83;;
66087;SDS011;52872;52.994;6.940;2023-03-24T04:54:25;3.70;;;1.80;;
66087;SDS011;52872;52.994;6.940;2023-03-24T04:57:01;4.85;;;1.80;;
66087;SDS011;52872;52.994;6.940;2023-03-24T04:59:35;5.32;;;1.73;;
66087;SDS011;52872;52.994;6.940;2023-03-24T05:02:04;5.60;;;1.80;;
66087;SDS011;52872;52.994;6.940;2023-03-24T05:04:42;3.05;;;1.42;;
66087;SDS011;52872;52.994;6.940;2023-03-24T05:07:20;3.42;;;1.60;;
66087;SDS011;52872;52.994;6.940;2023-03-24T05:09:51;6.00;;;2.00;;
66087;SDS011;52872;52.994;6.940;2023-03-24T05:12:18;6.50;;;1.90;;
66087;SDS011;52872;52.994;6.940;2023-03-24T05:15:08;4.38;;;2.08;;
66087;SDS011;52872;52.994;6.940;2023-03-24T05:17:36;7.20;;;1.92;;
66087;SDS011;52872;52.994;6.940;2023-03-24T05:20:03;4.60;;;1.60;;
66087;SDS011;52872;52.994;6.940;2023-03-24T05:22:40;5.85;;;1.73;;
66087;SDS011;52872;52.994;6.940;2023-03-24T05:25:07;8.23;;;1.77;;
66087;SDS011;52872;52.994;6.940;2023-03-24T05:27:34;6.55;;;2.05;;
66087;SDS011;52872;52.994;6.940;2023-03-24T05:30:13;6.82;;;2.00;;
66087;SDS011;52872;52.994;6.940;2023-03-24T05:32:42;7.05;;;1.73;;
66087;SDS011;52872;52.994;6.940;2023-03-24T05:35:11;8.20;;;2.55;;
66087;SDS011;52872;52.994;6.940;2023-03-24T05:37:40;7.00;;;1.95;;
66087;SDS011;52872;52.994;6.940;2023-03-24T05:40:07;5.00;;;1.90;;
66087;SDS011;52872;52.994;6.940;2023-03-24T05:42:50;6.82;;;2.00;;
66087;SDS011;52872;52.994;6.940;2023-03-24T05:45:19;4.82;;;2.00;;
66087;SDS011;52872;52.994;6.940;2023-03-24T05:47:46;9.70;;;2.08;;
66087;SDS011;52872;52.994;6.940;2023-03-24T05:50:17;7.20;;;2.30;;
66087;SDS011;52872;52.994;6.940;2023-03-24T05:52:45;9.90;;;2.47;;
66087;SDS011;52872;52.994;6.940;2023-03-24T05:55:47;11.52;;;3.05;;
66087;SDS011;52872;52.994;6.940;2023-03-24T05:58:34;7.78;;;2.83;;
66087;SDS011;52872;52.994;6.940;2023-03-24T06:01:05;11.35;;;2.63;;
66087;SDS011;52872;52.994;6.940;2023-03-24T06:03:35;5.47;;;2.45;;
66087;SDS011;52872;52.994;6.940;2023-03-24T06:06:09;9.13;;;2.20;;
66087;SDS011;52872;52.994;6.940;2023-03-24T06:08:42;12.48;;;2.90;;
66087;SDS011;52872;52.994;6.940;2023-03-24T06:11:11;9.45;;;3.20;;
66087;SDS011;52872;52.994;6.940;2023-03-24T06:13:48;8.50;;;3.00;;
66087;SDS011;52872;52.994;6.940;2023-03-24T06:16:15;6.10;;;2.78;;
66087;SDS011;52872;52.994;6.940;2023-03-24T06:18:52;10.13;;;2.67;;
66087;SDS011;52872;52.994;6.940;2023-03-24T06:21:39;11.32;;;2.90;;
66087;SDS011;52872;52.994;6.940;2023-03-24T06:24:07;10.35;;;2.38;;
66087;SDS011;52872;52.994;6.940;2023-03-24T06:26:33;5.43;;;2.15;;
66087;SDS011;52872;52.994;6.940;2023-03-24T06:29:01;10.65;;;2.47;;
66087;SDS011;52872;52.994;6.940;2023-03-24T06:31:32;4.15;;;1.83;;
66087;SDS011;52872;52.994;6.940;2023-03-24T06:34:02;9.70;;;2.17;;
66087;SDS011;52872;52.994;6.940;2023-03-24T06:36:29;10.38;;;2.08;;
66087;SDS011;52872;52.994;6.940;2023-03-24T06:38:56;5.00;;;1.48;;
66087;SDS011;52872;52.994;6.940;2023-03-24T06:41:25;6.93;;;2.10;;
66087;SDS011;52872;52.994;6.940;2023-03-24T06:43:55;7.93;;;2.08;;
66087;SDS011;52872;52.994;6.940;2023-03-24T06:46:23;6.55;;;1.80;;
66087;SDS011;52872;52.994;6.940;2023-03-24T06:48:50;9.50;;;2.17;;
66087;SDS011;52872;52.994;6.940;2023-03-24T06:51:18;6.75;;;2.50;;
66087;SDS011;52872;52.994;6.940;2023-03-24T06:53:45;10.40;;;2.72;;
66087;SDS011;52872;52.994;6.940;2023-03-24T06:56:12;6.38;;;2.53;;
66087;SDS011;52872;52.994;6.940;2023-03-24T06:58:50;6.05;;;2.40;;
66087;SDS011;52872;52.994;6.940;2023-03-24T07:01:26;7.88;;;1.80;;
66087;SDS011;52872;52.994;6.940;2023-03-24T07:03:56;6.32;;;2.40;;
66087;SDS011;52872;52.994;6.940;2023-03-24T07:06:50;6.35;;;2.13;;
66087;SDS011;52872;52.994;6.940;2023-03-24T07:09:23;10.57;;;2.13;;
66087;SDS011;52872;52.994;6.940;2023-03-24T07:11:50;8.10;;;2.53;;
66087;SDS011;52872;52.994;6.940;2023-03-24T07:14:17;7.28;;;2.20;;
66087;SDS011;52872;52.994;6.940;2023-03-24T07:16:47;8.13;;;2.42;;
66087;SDS011;52872;52.994;6.940;2023-03-24T07:19:38;6.97;;;2.13;;
66087;SDS011;52872;52.994;6.940;2023-03-24T07:22:31;10.48;;;2.70;;
66087;SDS011;52872;52.994;6.940;2023-03-24T07:25:21;7.35;;;2.10;;
66087;SDS011;52872;52.994;6.940;2023-03-24T07:27:55;9.98;;;2.33;;
66087;SDS011;52872;52.994;6.940;2023-03-24T07:30:23;7.15;;;2.10;;
66087;SDS011;52872;52.994;6.940;2023-03-24T07:33:03;6.55;;;2.15;;
66087;SDS011;52872;52.994;6.940;2023-03-24T07:35:32;8.70;;;2.50;;
66087;SDS011;52872;52.994;6.940;2023-03-24T07:37:59;8.60;;;2.67;;
66087;SDS011;52872;52.994;6.940;2023-03-24T07:40:26;12.65;;;2.33;;
66087;SDS011;52872;52.994;6.940;2023-03-24T07:42:58;8.45;;;2.13;;
66087;SDS011;52872;52.994;6.940;2023-03-24T07:45:52;8.52;;;2.20;;
66087;SDS011;52872;52.994;6.940;2023-03-24T07:48:19;7.13;;;2.28;;
66087;SDS011;52872;52.994;6.940;2023-03-24T07:50:46;11.50;;;2.38;;
66087;SDS011;52872;52.994;6.940;2023-03-24T07:53:48;9.63;;;2.83;;
66087;SDS011;52872;52.994;6.940;2023-03-24T07:56:31;10.15;;;2.42;;
66087;SDS011;52872;52.994;6.940;2023-03-24T07:58:59;14.68;;;2.90;;
66087;SDS011;52872;52.994;6.940;2023-03-24T08:01:30;13.65;;;2.60;;
66087;SDS011;52872;52.994;6.940;2023-03-24T08:04:00;9.88;;;2.55;;
66087;SDS011;52872;52.994;6.940;2023-03-24T08:06:47;14.48;;;3.60;;
66087;SDS011;52872;52.994;6.940;2023-03-24T08:09:14;15.82;;;3.45;;
66087;SDS011;52872;52.994;6.940;2023-03-24T08:11:42;11.70;;;2.60;;
66087;SDS011;52872;52.994;6.940;2023-03-24T08:14:09;8.68;;;2.75;;
66087;SDS011;52872;52.994;6.940;2023-03-24T08:16:36;9.52;;;2.60;;
66087;SDS011;52872;52.994;6.940;2023-03-24T08:19:06;6.22;;;2.40;;
66087;SDS011;52872;52.994;6.940;2023-03-24T08:21:33;17.58;;;3.15;;
66087;SDS011;52872;52.994;6.940;2023-03-24T08:24:00;12.20;;;3.00;;
66087;SDS011;52872;52.994;6.940;2023-03-24T08:26:27;15.73;;;3.03;;
66087;SDS011;52872;52.994;6.940;2023-03-24T08:28:54;9.57;;;2.53;;
66087;SDS011;52872;52.994;6.940;2023-03-24T08:31:22;16.08;;;2.85;;
66087;SDS011;52872;52.994;6.940;2023-03-24T08:33:49;13.80;;;3.60;;
66087;SDS011;52872;52.994;6.940;2023-03-24T08:36:16;13.63;;;3.20;;
66087;SDS011;52872;52.994;6.940;2023-03-24T08:38:42;15.20;;;3.65;;
66087;SDS011;52872;52.994;6.940;2023-03-24T08:41:09;12.18;;;2.67;;
66087;SDS011;52872;52.994;6.940;2023-03-24T08:43:36;11.48;;;3.42;;
66087;SDS011;52872;52.994;6.940;2023-03-24T08:46:06;12.18;;;2.65;;
66087;SDS011;52872;52.994;6.940;2023-03-24T08:48:35;13.93;;;2.92;;
66087;SDS011;52872;52.994;6.940;2023-03-24T08:51:14;14.48;;;3.05;;
66087;SDS011;52872;52.994;6.940;2023-03-24T08:53:42;14.48;;;3.22;;
66087;SDS011;52872;52.994;6.940;2023-03-24T08:56:09;11.95;;;3.13;;
66087;SDS011;52872;52.994;6.940;2023-03-24T08:58:36;18.52;;;3.08;;
66087;SDS011;52872;52.994;6.940;2023-03-24T09:01:03;14.65;;;2.60;;
66087;SDS011;52872;52.994;6.940;2023-03-24T09:03:30;11.85;;;3.30;;
66087;SDS011;52872;52.994;6.940;2023-03-24T09:05:57;11.40;;;3.15;;
66087;SDS011;52872;52.994;6.940;2023-03-24T09:08:25;16.05;;;3.40;;
66087;SDS011;52872;52.994;6.940;2023-03-24T09:10:52;9.57;;;2.40;;
66087;SDS011;52872;52.994;6.940;2023-03-24T09:13:19;14.07;;;2.60;;
66087;SDS011;52872;52.994;6.940;2023-03-24T09:15:48;9.18;;;2.35;;
66087;SDS011;52872;52.994;6.940;2023-03-24T09:18:19;13.07;;;2.88;;
66087;SDS011;52872;52.994;6.940;2023-03-24T09:20:47;14.32;;;3.08;;
66087;SDS011;52872;52.994;6.940;2023-03-24T09:23:14;11.95;;;2.78;;
66087;SDS011;52872;52.994;6.940;2023-03-24T09:25:42;11.80;;;3.08;;
66087;SDS011;52872;52.994;6.940;2023-03-24T09:28:09;10.20;;;2.83;;
66087;SDS011;52872;52.994;6.940;2023-03-24T09:30:36;9.95;;;2.78;;
66087;SDS011;52872;52.994;6.940;2023-03-24T09:33:03;12.25;;;3.05;;
66087;SDS011;52872;52.994;6.940;2023-03-24T09:35:30;14.30;;;3.00;;
66087;SDS011;52872;52.994;6.940;2023-03-24T09:37:57;8.43;;;2.55;;
66087;SDS011;52872;52.994;6.940;2023-03-24T09:40:25;12.10;;;2.65;;
66087;SDS011;52872;52.994;6.940;2023-03-24T09:42:59;8.65;;;2.53;;
66087;SDS011;52872;52.994;6.940;2023-03-24T09:45:48;8.57;;;2.85;;
66087;SDS011;52872;52.994;6.940;2023-03-24T09:48:24;14.20;;;3.00;;
66087;SDS011;52872;52.994;6.940;2023-03-24T09:51:09;12.00;;;2.50;;
66087;SDS011;52872;52.994;6.940;2023-03-24T09:53:46;9.63;;;2.50;;
66087;SDS011;52872;52.994;6.940;2023-03-24T09:56:18;9.73;;;2.40;;
66087;SDS011;52872;52.994;6.940;2023-03-24T10:01:40;9.85;;;3.10;;
66087;SDS011;52872;52.994;6.940;2023-03-24T10:04:14;7.80;;;2.22;;
66087;SDS011;52872;52.994;6.940;2023-03-24T10:06:44;9.00;;;2.90;;
66087;SDS011;52872;52.994;6.940;2023-03-24T10:11:58;8.07;;;2.13;;
66087;SDS011;52872;52.994;6.940;2023-03-24T10:14:38;11.50;;;3.33;;
66087;SDS011;52872;52.994;6.940;2023-03-24T10:19:44;9.25;;;2.72;;
66087;SDS011;52872;52.994;6.940;2023-03-24T10:22:35;5.78;;;2.20;;
66087;SDS011;52872;52.994;6.940;2023-03-24T10:30:31;10.05;;;2.65;;
66087;SDS011;52872;52.994;6.940;2023-03-24T10:33:02;11.68;;;3.10;;
66087;SDS011;52872;52.994;6.940;2023-03-24T10:35:34;11.27;;;2.63;;
66087;SDS011;52872;52.994;6.940;2023-03-24T10:38:10;11.45;;;2.63;;
66087;SDS011;52872;52.994;6.940;2023-03-24T10:40:45;10.88;;;2.85;;
66087;SDS011;52872;52.994;6.940;2023-03-24T10:43:14;10.93;;;2.72;;
66087;SDS011;52872;52.994;6.940;2023-03-24T10:45:46;10.25;;;2.75;;
66087;SDS011;52872;52.994;6.940;2023-03-24T10:48:32;10.82;;;2.83;;
66087;SDS011;52872;52.994;6.940;2023-03-24T10:50:59;7.90;;;2.83;;
66087;SDS011;52872;52.994;6.940;2023-03-24T10:53:26;10.40;;;2.85;;
66087;SDS011;52872;52.994;6.940;2023-03-24T10:55:53;11.07;;;2.70;;
66087;SDS011;52872;52.994;6.940;2023-03-24T10:58:37;6.07;;;2.28;;
66087;SDS011;52872;52.994;6.940;2023-03-24T11:01:19;9.85;;;2.33;;
66087;SDS011;52872;52.994;6.940;2023-03-24T11:03:58;15.55;;;2.70;;
66087;SDS011;52872;52.994;6.940;2023-03-24T11:06:30;9.60;;;2.45;;
66087;SDS011;52872;52.994;6.940;2023-03-24T11:09:17;9.70;;;2.20;;
66087;SDS011;52872;52.994;6.940;2023-03-24T11:11:46;6.18;;;1.70;;
66087;SDS011;52872;52.994;6.940;2023-03-24T11:14:19;11.13;;;2.38;;
66087;SDS011;52872;52.994;6.940;2023-03-24T11:16:52;9.95;;;2.53;;
66087;SDS011;52872;52.994;6.940;2023-03-24T11:19:49;6.68;;;1.90;;
66087;SDS011;52872;52.994;6.940;2023-03-24T11:22:21;9.47;;;2.10;;
66087;SDS011;52872;52.994;6.940;2023-03-24T11:24:51;8.68;;;1.90;;
66087;SDS011;52872;52.994;6.940;2023-03-24T11:27:21;6.63;;;1.60;;
66087;SDS011;52872;52.994;6.940;2023-03-24T11:29:49;6.90;;;1.75;;
66087;SDS011;52872;52.994;6.940;2023-03-24T11:32:26;11.77;;;2.45;;
66087;SDS011;52872;52.994;6.940;2023-03-24T11:35:05;9.50;;;2.25;;
66087;SDS011;52872;52.994;6.940;2023-03-24T11:37:38;9.77;;;1.92;;
66087;SDS011;52872;52.994;6.940;2023-03-24T11:48:25;7.22;;;2.20;;
66087;SDS011;52872;52.994;6.940;2023-03-24T11:51:07;6.53;;;1.45;;
66087;SDS011;52872;52.994;6.940;2023-03-24T11:53:41;9.18;;;2.25;;
66087;SDS011;52872;52.994;6.940;2023-03-24T11:58:55;6.60;;;1.55;;
66087;SDS011;52872;52.994;6.940;2023-03-24T12:01:42;7.90;;;1.73;;
66087;SDS011;52872;52.994;6.940;2023-03-24T12:12:36;8.18;;;1.92;;
66087;SDS011;52872;52.994;6.940;2023-03-24T12:21:26;12.35;;;2.20;;
66087;SDS011;52872;52.994;6.940;2023-03-24T12:26:49;9.90;;;2.33;;
66087;SDS011;52872;52.994;6.940;2023-03-24T12:32:17;7.25;;;2.17;;
66087;SDS011;52872;52.994;6.940;2023-03-24T12:35:00;7.97;;;2.03;;
66087;SDS011;52872;52.994;6.940;2023-03-24T12:41:05;9.52;;;2.53;;
66087;SDS011;52872;52.994;6.940;2023-03-24T12:49:39;9.57;;;1.80;;
66087;SDS011;52872;52.994;6.940;2023-03-24T12:57:41;6.53;;;1.80;;
66087;SDS011;52872;52.994;6.940;2023-03-24T13:03:05;7.90;;;1.67;;
66087;SDS011;52872;52.994;6.940;2023-03-24T13:05:44;9.17;;;2.43;;
66087;SDS011;52872;52.994;6.940;2023-03-24T13:08:20;6.13;;;1.80;;
66087;SDS011;52872;52.994;6.940;2023-03-24T13:10:55;6.90;;;2.00;;
66087;SDS011;52872;52.994;6.940;2023-03-24T13:13:31;6.15;;;1.92;;
66087;SDS011;52872;52.994;6.940;2023-03-24T13:16:04;9.27;;;2.13;;
66087;SDS011;52872;52.994;6.940;2023-03-24T13:18:54;8.27;;;2.10;;
66087;SDS011;52872;52.994;6.940;2023-03-24T13:21:25;8.10;;;1.90;;
66087;SDS011;52872;52.994;6.940;2023-03-24T13:24:06;6.78;;;1.80;;
66087;SDS011;52872;52.994;6.940;2023-03-24T13:29:24;6.07;;;1.70;;
66087;SDS011;52872;52.994;6.940;2023-03-24T13:37:39;8.15;;;1.90;;
66087;SDS011;52872;52.994;6.940;2023-03-24T13:40:22;6.78;;;1.88;;
66087;SDS011;52872;52.994;6.940;2023-03-24T13:42:52;5.80;;;1.67;;
66087;SDS011;52872;52.994;6.940;2023-03-24T13:45:30;9.32;;;2.17;;
66087;SDS011;52872;52.994;6.940;2023-03-24T13:50:57;8.15;;;2.17;;
66087;SDS011;52872;52.994;6.940;2023-03-24T13:53:43;10.50;;;2.13;;
66087;SDS011;52872;52.994;6.940;2023-03-24T13:56:24;7.88;;;1.67;;
66087;SDS011;52872;52.994;6.940;2023-03-24T14:04:17;5.85;;;2.15;;
66087;SDS011;52872;52.994;6.940;2023-03-24T14:07:51;9.30;;;1.75;;
66087;SDS011;52872;52.994;6.940;2023-03-24T14:15:34;11.90;;;2.50;;
66087;SDS011;52872;52.994;6.940;2023-03-24T14:28:51;8.53;;;1.73;;
66087;SDS011;52872;52.994;6.940;2023-03-24T14:31:26;10.23;;;2.47;;
66087;SDS011;52872;52.994;6.940;2023-03-24T14:36:35;11.02;;;2.65;;
66087;SDS011;52872;52.994;6.940;2023-03-24T14:39:16;8.20;;;2.15;;
66087;SDS011;52872;52.994;6.940;2023-03-24T14:41:58;6.43;;;1.65;;
66087;SDS011;52872;52.994;6.940;2023-03-24T14:47:18;7.30;;;1.90;;
66087;SDS011;52872;52.994;6.940;2023-03-24T14:49:52;7.88;;;2.15;;
66087;SDS011;52872;52.994;6.940;2023-03-24T14:55:06;7.80;;;1.90;;
66087;SDS011;52872;52.994;6.940;2023-03-24T14:57:41;9.18;;;1.80;;
66087;SDS011;52872;52.994;6.940;2023-03-24T15:03:22;12.13;;;2.25;;
66087;SDS011;52872;52.994;6.940;2023-03-24T15:06:15;8.60;;;1.80;;
66087;SDS011;52872;52.994;6.940;2023-03-24T15:08:52;7.50;;;1.58;;
66087;SDS011;52872;52.994;6.940;2023-03-24T15:11:24;5.43;;;1.30;;
66087;SDS011;52872;52.994;6.940;2023-03-24T15:13:56;7.43;;;1.70;;
66087;SDS011;52872;52.994;6.940;2023-03-24T15:16:29;4.82;;;1.27;;
66087;SDS011;52872;52.994;6.940;2023-03-24T15:18:58;3.60;;;1.48;;
66087;SDS011;52872;52.994;6.940;2023-03-24T15:23:55;7.20;;;2.03;;
66087;SDS011;52872;52.994;6.940;2023-03-24T15:26:23;5.40;;;1.75;;
66087;SDS011;52872;52.994;6.940;2023-03-24T15:29:01;6.00;;;1.83;;
66087;SDS011;52872;52.994;6.940;2023-03-24T15:31:31;6.30;;;1.67;;
66087;SDS011;52872;52.994;6.940;2023-03-24T15:36:55;6.15;;;1.77;;
66087;SDS011;52872;52.994;6.940;2023-03-24T15:39:27;7.03;;;1.65;;
66087;SDS011;52872;52.994;6.940;2023-03-24T15:41:57;6.43;;;1.65;;
66087;SDS011;52872;52.994;6.940;2023-03-24T15:44:25;3.80;;;1.40;;
66087;SDS011;52872;52.994;6.940;2023-03-24T15:46:58;10.32;;;1.90;;
66087;SDS011;52872;52.994;6.940;2023-03-24T15:49:31;4.90;;;1.38;;
66087;SDS011;52872;52.994;6.940;2023-03-24T15:52:02;10.13;;;2.47;;
66087;SDS011;52872;52.994;6.940;2023-03-24T15:54:30;7.10;;;1.58;;
66087;SDS011;52872;52.994;6.940;2023-03-24T15:59:46;5.43;;;2.00;;
66087;SDS011;52872;52.994;6.940;2023-03-24T16:02:28;6.07;;;1.60;;
66087;SDS011;52872;52.994;6.940;2023-03-24T16:08:19;6.97;;;1.95;;
66087;SDS011;52872;52.994;6.940;2023-03-24T16:10:58;7.63;;;2.00;;
66087;SDS011;52872;52.994;6.940;2023-03-24T16:13:26;11.07;;;2.08;;
66087;SDS011;52872;52.994;6.940;2023-03-24T16:18:30;7.50;;;1.63;;
66087;SDS011;52872;52.994;6.940;2023-03-24T16:20:59;9.27;;;2.35;;
66087;SDS011;52872;52.994;6.940;2023-03-24T16:23:27;5.05;;;1.50;;
66087;SDS011;52872;52.994;6.940;2023-03-24T16:25:55;5.65;;;1.92;;
66087;SDS011;52872;52.994;6.940;2023-03-24T16:28:22;6.88;;;1.70;;
66087;SDS011;52872;52.994;6.940;2023-03-24T16:30:57;6.75;;;2.28;;
66087;SDS011;52872;52.994;6.940;2023-03-24T16:33:27;6.97;;;3.15;;
66087;SDS011;52872;52.994;6.940;2023-03-24T16:35:55;6.40;;;2.33;;
66087;SDS011;52872;52.994;6.940;2023-03-24T16:38:22;9.00;;;4.15;;
66087;SDS011;52872;52.994;6.940;2023-03-24T16:40:51;8.05;;;3.30;;
66087;SDS011;52872;52.994;6.940;2023-03-24T16:43:19;4.85;;;2.15;;
66087;SDS011;52872;52.994;6.940;2023-03-24T16:45:47;4.35;;;1.40;;
66087;SDS011;52872;52.994;6.940;2023-03-24T16:48:15;4.22;;;1.75;;
66087;SDS011;52872;52.994;6.940;2023-03-24T16:50:48;5.97;;;1.83;;
66087;SDS011;52872;52.994;6.940;2023-03-24T16:55:44;5.70;;;1.63;;
66087;SDS011;52872;52.994;6.940;2023-03-24T16:58:13;5.82;;;1.60;;
66087;SDS011;52872;52.994;6.940;2023-03-24T17:00:42;4.07;;;1.60;;
66087;SDS011;52872;52.994;6.940;2023-03-24T17:03:10;4.85;;;1.60;;
66087;SDS011;52872;52.994;6.940;2023-03-24T17:05:41;6.68;;;1.70;;
66087;SDS011;52872;52.994;6.940;2023-03-24T17:08:14;7.10;;;2.03;;
66087;SDS011;52872;52.994;6.940;2023-03-24T17:10:41;8.15;;;2.10;;
66087;SDS011;52872;52.994;6.940;2023-03-24T17:13:10;8.10;;;2.05;;
66087;SDS011;52872;52.994;6.940;2023-03-24T17:15:43;8.60;;;2.55;;
66087;SDS011;52872;52.994;6.940;2023-03-24T17:18:10;4.40;;;1.92;;
66087;SDS011;52872;52.994;6.940;2023-03-24T17:20:37;7.60;;;2.17;;
66087;SDS011;52872;52.994;6.940;2023-03-24T17:23:08;4.65;;;1.77;;
66087;SDS011;52872;52.994;6.940;2023-03-24T17:25:38;4.95;;;2.00;;
66087;SDS011;52872;52.994;6.940;2023-03-24T17:28:08;3.25;;;1.60;;
66087;SDS011;52872;52.994;6.940;2023-03-24T17:30:38;6.93;;;2.17;;
66087;SDS011;52872;52.994;6.940;2023-03-24T17:33:05;6.63;;;2.88;;
66087;SDS011;52872;52.994;6.940;2023-03-24T17:35:32;5.20;;;2.67;;
66087;SDS011;52872;52.994;6.940;2023-03-24T17:37:59;6.35;;;2.33;;
66087;SDS011;52872;52.994;6.940;2023-03-24T17:40:26;4.88;;;2.67;;
66087;SDS011;52872;52.994;6.940;2023-03-24T17:42:53;4.82;;;2.10;;
66087;SDS011;52872;52.994;6.940;2023-03-24T17:45:20;5.15;;;2.40;;
66087;SDS011;52872;52.994;6.940;2023-03-24T17:47:47;4.10;;;2.00;;
66087;SDS011;52872;52.994;6.940;2023-03-24T17:50:14;6.93;;;2.60;;
66087;SDS011;52872;52.994;6.940;2023-03-24T17:52:42;3.83;;;2.03;;
66087;SDS011;52872;52.994;6.940;2023-03-24T17:55:11;5.40;;;2.55;;
66087;SDS011;52872;52.994;6.940;2023-03-24T17:57:40;5.97;;;2.63;;
66087;SDS011;52872;52.994;6.940;2023-03-24T18:00:08;5.43;;;2.50;;
66087;SDS011;52872;52.994;6.940;2023-03-24T18:02:37;3.65;;;1.98;;
66087;SDS011;52872;52.994;6.940;2023-03-24T18:05:05;4.95;;;2.20;;
66087;SDS011;52872;52.994;6.940;2023-03-24T18:07:33;3.53;;;2.38;;
66087;SDS011;52872;52.994;6.940;2023-03-24T18:10:00;4.85;;;2.70;;
66087;SDS011;52872;52.994;6.940;2023-03-24T18:12:27;4.95;;;1.90;;
66087;SDS011;52872;52.994;6.940;2023-03-24T18:14:54;6.32;;;1.92;;
66087;SDS011;52872;52.994;6.940;2023-03-24T18:17:21;6.35;;;1.98;;
66087;SDS011;52872;52.994;6.940;2023-03-24T18:19:48;4.07;;;1.80;;
66087;SDS011;52872;52.994;6.940;2023-03-24T18:22:16;4.93;;;1.70;;
66087;SDS011;52872;52.994;6.940;2023-03-24T18:24:43;5.13;;;1.85;;
66087;SDS011;52872;52.994;6.940;2023-03-24T18:27:10;9.98;;;2.47;;
66087;SDS011;52872;52.994;6.940;2023-03-24T18:29:37;5.88;;;2.25;;
66087;SDS011;52872;52.994;6.940;2023-03-24T18:32:04;8.63;;;1.80;;